Time;durP1;ratioP1;P1;durP2;ratioP2;P2;SDS_P1;SDS_P2;PMS_P1;PMS_P2;Temp;Humidity;BMP_temperature;BMP_pressure;BME280_temperature;BME280_humidity;BME280_pressure;Samples;Min_cycle;Max_cycle;Signal;HPM_P1;HPM_P2
2023/05/15 20:54:05;;;;;;;;;3.00;3.00;;;;;20.35;45.73;101483.38;5157549;22;45562;-46
2023/05/15 20:56:30;;;;;;;;;3.00;3.00;;;;;20.36;45.36;101498.25;4978460;28;46478;-44
2023/05/15 20:58:56;;;;;;;;;3.00;3.00;;;;;20.37;45.91;101499.13;4977929;28;45407;-46
2023/05/15 21:01:21;;;;;;;;;3.25;3.00;;;;;20.41;45.94;101498.03;4976794;28;45282;-48
2023/05/15 21:03:47;;;;;;;;;3.00;3.00;;;;;20.50;45.71;101495.03;4971276;28;45275;-43
2023/05/15 21:06:13;;;;;;;;;4.00;4.00;;;;;20.59;45.75;101503.41;4977829;28;49741;-43
2023/05/15 21:08:39;;;;;;;;;4.00;4.00;;;;;20.65;45.81;101498.75;4978382;28;45186;-52
2023/05/15 21:11:04;;;;;;;;;4.50;3.00;;;;;20.67;45.39;101496.03;4978401;28;45289;-47
2023/05/15 21:13:30;;;;;;;;;4.00;3.25;;;;;20.77;45.32;101507.03;4978337;28;45371;-48
2023/05/15 21:15:55;;;;;;;;;5.75;3.25;;;;;20.79;45.39;101499.91;4978039;28;45797;-44
2023/05/15 21:18:20;;;;;;;;;5.00;3.50;;;;;20.84;45.49;101503.19;4978204;28;45453;-44
2023/05/15 21:20:46;;;;;;;;;2.25;2.00;;;;;20.91;45.31;101503.75;4977988;28;45230;-43
2023/05/15 21:23:11;;;;;;;;;4.00;3.00;;;;;20.93;45.16;101508.03;4978278;28;45420;-49
2023/05/15 21:25:37;;;;;;;;;3.50;2.50;;;;;20.96;44.99;101512.28;4978250;28;46520;-44
2023/05/15 21:28:03;;;;;;;;;3.00;3.00;;;;;20.97;45.32;101514.88;4977839;28;45427;-43
2023/05/15 21:30:28;;;;;;;;;6.00;4.00;;;;;21.01;44.84;101505.88;4978060;28;45349;-45
2023/05/15 21:32:54;;;;;;;;;3.00;3.00;;;;;21.04;44.83;101519.84;4978061;28;45643;-46
2023/05/15 21:35:19;;;;;;;;;2.00;2.00;;;;;21.05;44.65;101517.16;4976200;28;47408;-47
2023/05/15 21:37:45;;;;;;;;;3.25;3.25;;;;;21.03;44.95;101521.63;4975543;28;46293;-47
2023/05/15 21:40:11;;;;;;;;;3.00;3.00;;;;;21.01;44.83;101528.75;4976807;28;45447;-50
2023/05/15 21:42:36;;;;;;;;;4.00;3.75;;;;;20.94;44.69;101517.66;4977824;28;45271;-48
2023/05/15 21:45:01;;;;;;;;;6.25;3.00;;;;;20.92;44.76;101532.66;4976793;28;60797;-49
2023/05/15 21:47:27;;;;;;;;;2.75;2.00;;;;;20.88;44.93;101522.34;4977148;28;45404;-46
2023/05/15 21:49:52;;;;;;;;;3.25;3.00;;;;;20.86;45.05;101525.06;4976741;28;46052;-44
2023/05/15 21:52:18;;;;;;;;;3.50;1.50;;;;;20.77;45.12;101514.94;4977683;28;45411;-51
2023/05/15 21:54:44;;;;;;;;;4.75;3.50;;;;;20.80;44.84;101526.19;4976914;28;45294;-46
2023/05/15 21:57:09;;;;;;;;;4.00;3.75;;;;;20.78;44.99;101521.91;4977427;28;45238;-46
2023/05/15 21:59:35;;;;;;;;;2.50;2.50;;;;;20.76;44.78;101527.25;4977509;28;45218;-45
2023/05/15 22:02:00;;;;;;;;;4.25;3.00;;;;;20.74;44.99;101520.31;4977652;28;45298;-44
2023/05/15 22:04:27;;;;;;;;;3.50;3.00;;;;;20.71;44.93;101523.94;4977218;28;45281;-53
2023/05/15 22:06:52;;;;;;;;;3.25;1.75;;;;;20.69;44.95;101526.63;4977287;28;45435;-53
2023/05/15 22:09:18;;;;;;;;;3.00;3.00;;;;;20.67;44.78;101525.84;4977278;28;45360;-47
2023/05/15 22:11:43;;;;;;;;;2.00;2.00;;;;;20.66;45.12;101526.78;4977993;28;45430;-48
2023/05/15 22:14:08;;;;;;;;;3.75;3.00;;;;;20.65;44.67;101522.44;4977342;28;45391;-45
2023/05/15 22:16:34;;;;;;;;;2.25;2.25;;;;;20.63;44.57;101521.66;4977182;28;45688;-49
2023/05/15 22:18:59;;;;;;;;;4.25;3.00;;;;;20.62;44.91;101530.47;4977222;28;45534;-45
2023/05/15 22:21:24;;;;;;;;;3.00;3.00;;;;;20.59;44.76;101525.34;4977565;28;45376;-48
2023/05/15 22:23:50;;;;;;;;;2.75;2.75;;;;;20.60;44.56;101534.09;4976910;28;46513;-56
2023/05/15 22:26:15;;;;;;;;;5.00;2.75;;;;;20.58;44.97;101528.03;4992093;28;45417;-52
2023/05/15 22:28:41;;;;;;;;;3.25;3.00;;;;;20.55;45.06;101519.34;4976336;28;45312;-54
2023/05/15 22:31:07;;;;;;;;;2.00;2.00;;;;;20.57;44.88;101528.97;4977181;28;45197;-49
2023/05/15 22:33:32;;;;;;;;;3.33;3.33;;;;;20.54;44.61;101527.34;4976473;28;55524;-49
2023/05/15 22:35:57;;;;;;;;;2.75;2.25;;;;;20.52;44.45;101523.91;4976801;28;45384;-49
2023/05/15 22:38:23;;;;;;;;;5.00;2.75;;;;;20.52;44.68;101523.91;4977685;28;45333;-49
2023/05/15 22:40:52;;;;;;;;;4.00;3.00;;;;;20.52;44.66;101529.19;4977172;28;45344;-45
2023/05/15 22:43:17;;;;;;;;;3.00;2.00;;;;;20.51;44.44;101532.72;4976638;28;47123;-48
2023/05/15 22:45:43;;;;;;;;;3.00;2.25;;;;;20.50;45.15;101528.38;4976842;28;45289;-47
2023/05/15 22:48:08;;;;;;;;;6.00;3.00;;;;;20.50;44.62;101531.88;4976458;28;53796;-53
2023/05/15 22:50:34;;;;;;;;;2.00;2.00;;;;;20.48;44.68;101525.81;4977542;28;45325;-55
2023/05/15 22:52:59;;;;;;;;;3.25;3.00;;;;;20.48;44.55;101532.84;4980056;28;45337;-52
2023/05/15 22:55:25;;;;;;;;;4.00;2.00;;;;;20.46;44.96;101525.03;4980104;28;45293;-54
2023/05/15 22:57:53;;;;;;;;;3.00;3.00;;;;;20.47;44.62;101536.41;4980385;28;45405;-54
2023/05/15 23:00:18;;;;;;;;;2.50;2.50;;;;;20.46;44.62;101529.44;4980331;28;45392;-53
2023/05/15 23:02:44;;;;;;;;;2.00;2.00;;;;;20.46;44.25;101539.97;4980445;28;45212;-52
2023/05/15 23:05:09;;;;;;;;;3.00;3.00;;;;;20.43;44.69;101533.06;4980053;28;45353;-58
2023/05/15 23:07:35;;;;;;;;;2.75;2.75;;;;;20.43;44.94;101532.22;4980103;28;45317;-56
2023/05/15 23:10:00;;;;;;;;;2.00;2.00;;;;;20.43;44.52;101529.59;4980269;28;45253;-53
2023/05/15 23:12:25;;;;;;;;;4.00;2.00;;;;;20.42;44.38;101531.34;4979998;28;46309;-53
2023/05/15 23:14:51;;;;;;;;;3.00;3.00;;;;;20.42;44.45;101535.78;4979896;28;45265;-47
2023/05/15 23:17:16;;;;;;;;;4.25;3.00;;;;;20.42;44.72;101538.41;4980221;28;45525;-46
2023/05/15 23:19:41;;;;;;;;;2.00;2.00;;;;;20.42;44.57;101541.88;4995270;28;45317;-46
2023/05/15 23:22:07;;;;;;;;;2.00;2.00;;;;;20.41;44.55;101544.59;4979526;28;50331;-46
2023/05/15 23:24:32;;;;;;;;;2.25;2.25;;;;;20.42;44.29;101543.66;4979784;28;45395;-46
2023/05/15 23:26:57;;;;;;;;;2.50;2.00;;;;;20.41;44.61;101541.94;4980001;28;45375;-45
2023/05/15 23:29:23;;;;;;;;;3.00;2.00;;;;;20.40;44.45;101541.09;4979939;28;45449;-45
2023/05/15 23:31:48;;;;;;;;;2.25;2.25;;;;;20.40;44.42;101541.09;4979119;28;66789;-46
2023/05/15 23:34:13;;;;;;;;;4.00;2.25;;;;;20.39;44.15;101542.88;4979956;28;45364;-46
2023/05/15 23:36:39;;;;;;;;;4.50;3.00;;;;;20.37;44.01;101544.72;4979681;28;45334;-45
2023/05/15 23:39:04;;;;;;;;;2.00;2.00;;;;;20.38;44.56;101546.44;4979748;28;45671;-45
2023/05/15 23:41:29;;;;;;;;;2.67;2.67;;;;;20.38;44.40;101549.06;4978826;28;58396;-48
2023/05/15 23:43:55;;;;;;;;;3.25;3.25;;;;;20.36;44.39;101537.72;4979235;28;45345;-45
2023/05/15 23:46:21;;;;;;;;;4.00;2.00;;;;;20.36;44.27;101544.78;4994381;28;45344;-47
2023/05/15 23:48:46;;;;;;;;;3.00;2.00;;;;;20.36;44.21;101558.78;4979901;28;45413;-49
2023/05/15 23:51:11;;;;;;;;;3.00;3.00;;;;;20.36;44.33;101553.53;4978408;28;67123;-45
2023/05/15 23:53:36;;;;;;;;;3.00;2.00;;;;;20.34;44.08;101552.72;4978538;28;55324;-49
2023/05/15 23:56:02;;;;;;;;;6.00;2.50;;;;;20.35;44.18;101549.19;4979069;28;47436;-45
2023/05/15 23:58:27;;;;;;;;;1.00;1.00;;;;;20.34;44.13;101549.25;4979456;28;45211;-45
